This is the latest recevied weather packets stored in our database for station/object DM4XI-13. If no packets are shown the sender has not sent any weather packets the latest 1 day(s).
| Time | Temp. | Humidity | Pressure | Rain* | Wind** | Luminosity | Snow |
|---|---|---|---|---|---|---|---|
| 1778075182 | 21.11° C | 45% | 1003.2 hPa | 0 mm | 0 m/s | 283 W/m² | - |
| 1778075060 | 21.11° C | 45% | 1003.2 hPa | 0 mm | 0.89 m/s, 288° | 318 W/m² | - |
| 1778074938 | 21.11° C | 47% | 1003.3 hPa | 0 mm | 0.45 m/s, 271° | 321 W/m² | - |
| 1778074877 | 21.11° C | 46% | 1003.3 hPa | 0 mm | 0.89 m/s, 252° | 357 W/m² | - |
| 1778074816 | 21.11° C | 46% | 1003.2 hPa | 0 mm | 0.89 m/s, 262° | 318 W/m² | - |
| 1778074755 | 21.11° C | 46% | 1003.1 hPa | 0 mm | 0.89 m/s, 265° | 314 W/m² | - |
| 1778074694 | 21.11° C | 47% | 1003.1 hPa | 0 mm | 0 m/s | 323 W/m² | - |
| 1778074633 | 21.11° C | 47% | 1003.3 hPa | 0 mm | 0 m/s | 320 W/m² | - |
| 1778074572 | 21.11° C | 45% | 1003.3 hPa | 0 mm | 0.45 m/s, 225° | 295 W/m² | - |
| 1778074511 | 21.11° C | 45% | 1003.1 hPa | 0 mm | 0 m/s | 278 W/m² | - |
| 1778074450 | 21.11° C | 45% | 1003.4 hPa | 0 mm | 0.89 m/s, 286° | 268 W/m² | - |
| 1778074389 | 21.11° C | 47% | 1003.2 hPa | 0 mm | 0.45 m/s, 226° | 266 W/m² | - |
| 1778074328 | 21.11° C | 46% | 1003.4 hPa | 0 mm | 0 m/s | 267 W/m² | - |
| 1778074206 | 21.11° C | 46% | 1003.5 hPa | 0 mm | 0.89 m/s, 275° | 256 W/m² | - |
| 1778073108 | 20.56° C | 48% | 1003.3 hPa | 0 mm | 0.89 m/s, 187° | 235 W/m² | - |
| 1778072985 | 20.56° C | 50% | 1003.4 hPa | 0 mm | 0.89 m/s, 178° | 255 W/m² | - |
| 1778072619 | 20.56° C | 47% | 1003.5 hPa | 0 mm | 0.45 m/s, 345° | 228 W/m² | - |
| 1778072375 | 20.56° C | 47% | 1003.5 hPa | 0 mm | 0.89 m/s, 297° | 224 W/m² | - |
| 1778071887 | 21.11° C | 46% | 1003.5 hPa | 0 mm | 0.45 m/s, 272° | 294 W/m² | - |
| 1778071826 | 20.56° C | 47% | 1003.4 hPa | 0 mm | 0.45 m/s, 246° | 323 W/m² | - |
| 1778071643 | 20.56° C | 47% | 1003.4 hPa | 0 mm | 0.45 m/s, 249° | 488 W/m² | - |
| 1778071582 | 20.56° C | 49% | 1003.5 hPa | 0 mm | 0.45 m/s, 308° | 513 W/m² | - |
| 1778071521 | 20.56° C | 46% | 1003.4 hPa | 0 mm | 0.45 m/s, 252° | 451 W/m² | - |
| 1778071460 | 21.11° C | 47% | 1003.8 hPa | 0 mm | 0.89 m/s, 267° | 393 W/m² | - |
| 1778071277 | 21.11° C | 48% | 1003.6 hPa | 0 mm | 0.89 m/s, 4° | 284 W/m² | - |
* Rain latest hour (hover to see other rain measurements)
** Current wind speed in m/s (hover to see current wind gust speed)